sensor_id;sensor_type;location;lat;lon;timestamp;P1;durP1;ratioP1;P2;durP2;ratioP2
9563;SDS011;4820;50.870;4.702;2022-08-05T00:00:58;6.18;;;4.80;;
9563;SDS011;4820;50.870;4.702;2022-08-05T00:03:24;5.68;;;4.43;;
9563;SDS011;4820;50.870;4.702;2022-08-05T00:05:50;10.20;;;5.88;;
9563;SDS011;4820;50.870;4.702;2022-08-05T00:08:16;5.75;;;4.75;;
9563;SDS011;4820;50.870;4.702;2022-08-05T00:10:41;5.95;;;4.50;;
9563;SDS011;4820;50.870;4.702;2022-08-05T00:13:10;6.35;;;4.50;;
9563;SDS011;4820;50.870;4.702;2022-08-05T00:15:36;8.68;;;4.60;;
9563;SDS011;4820;50.870;4.702;2022-08-05T00:18:01;7.32;;;4.25;;
9563;SDS011;4820;50.870;4.702;2022-08-05T00:20:27;6.38;;;4.90;;
9563;SDS011;4820;50.870;4.702;2022-08-05T00:22:53;5.75;;;4.53;;
9563;SDS011;4820;50.870;4.702;2022-08-05T00:25:19;5.90;;;4.25;;
9563;SDS011;4820;50.870;4.702;2022-08-05T00:27:45;4.97;;;3.72;;
9563;SDS011;4820;50.870;4.702;2022-08-05T00:30:10;5.30;;;4.22;;
9563;SDS011;4820;50.870;4.702;2022-08-05T00:32:36;6.38;;;4.78;;
9563;SDS011;4820;50.870;4.702;2022-08-05T00:35:02;5.25;;;4.18;;
9563;SDS011;4820;50.870;4.702;2022-08-05T00:37:28;5.15;;;3.58;;
9563;SDS011;4820;50.870;4.702;2022-08-05T00:39:54;7.10;;;3.88;;
9563;SDS011;4820;50.870;4.702;2022-08-05T00:42:33;5.00;;;3.93;;
9563;SDS011;4820;50.870;4.702;2022-08-05T00:45:00;8.70;;;4.50;;
9563;SDS011;4820;50.870;4.702;2022-08-05T00:47:27;5.63;;;3.80;;
9563;SDS011;4820;50.870;4.702;2022-08-05T00:49:53;8.13;;;4.22;;
9563;SDS011;4820;50.870;4.702;2022-08-05T00:52:19;6.13;;;4.00;;
9563;SDS011;4820;50.870;4.702;2022-08-05T00:54:46;8.05;;;4.30;;
9563;SDS011;4820;50.870;4.702;2022-08-05T00:57:12;5.50;;;4.25;;
9563;SDS011;4820;50.870;4.702;2022-08-05T00:59:38;5.72;;;4.38;;
9563;SDS011;4820;50.870;4.702;2022-08-05T01:02:05;6.78;;;4.60;;
9563;SDS011;4820;50.870;4.702;2022-08-05T01:04:31;6.55;;;4.53;;
9563;SDS011;4820;50.870;4.702;2022-08-05T01:06:56;6.82;;;4.70;;
9563;SDS011;4820;50.870;4.702;2022-08-05T01:09:22;6.47;;;4.53;;
9563;SDS011;4820;50.870;4.702;2022-08-05T01:11:48;6.15;;;5.05;;
9563;SDS011;4820;50.870;4.702;2022-08-05T01:14:21;6.55;;;5.00;;
9563;SDS011;4820;50.870;4.702;2022-08-05T01:17:04;8.00;;;5.22;;
9563;SDS011;4820;50.870;4.702;2022-08-05T01:19:44;7.70;;;5.80;;
9563;SDS011;4820;50.870;4.702;2022-08-05T01:30:52;8.65;;;6.05;;
9563;SDS011;4820;50.870;4.702;2022-08-05T01:33:36;7.47;;;5.32;;
9563;SDS011;4820;50.870;4.702;2022-08-05T01:36:12;5.72;;;5.00;;
9563;SDS011;4820;50.870;4.702;2022-08-05T01:38:40;8.38;;;5.63;;
9563;SDS011;4820;50.870;4.702;2022-08-05T01:41:08;6.25;;;5.20;;
9563;SDS011;4820;50.870;4.702;2022-08-05T01:43:37;8.00;;;5.18;;
9563;SDS011;4820;50.870;4.702;2022-08-05T01:46:04;5.80;;;5.15;;
9563;SDS011;4820;50.870;4.702;2022-08-05T01:48:30;6.35;;;4.68;;
9563;SDS011;4820;50.870;4.702;2022-08-05T01:50:57;8.23;;;5.53;;
9563;SDS011;4820;50.870;4.702;2022-08-05T01:53:24;6.65;;;5.40;;
9563;SDS011;4820;50.870;4.702;2022-08-05T01:55:52;8.82;;;5.95;;
9563;SDS011;4820;50.870;4.702;2022-08-05T01:58:23;6.25;;;5.50;;
9563;SDS011;4820;50.870;4.702;2022-08-05T02:00:50;7.75;;;5.22;;
9563;SDS011;4820;50.870;4.702;2022-08-05T02:03:19;7.72;;;5.63;;
9563;SDS011;4820;50.870;4.702;2022-08-05T02:05:49;5.80;;;4.90;;
9563;SDS011;4820;50.870;4.702;2022-08-05T02:08:16;6.85;;;5.45;;
9563;SDS011;4820;50.870;4.702;2022-08-05T02:10:43;6.60;;;5.38;;
9563;SDS011;4820;50.870;4.702;2022-08-05T02:13:24;8.27;;;5.70;;
9563;SDS011;4820;50.870;4.702;2022-08-05T02:18:49;8.80;;;5.60;;
9563;SDS011;4820;50.870;4.702;2022-08-05T02:24:08;8.23;;;6.20;;
9563;SDS011;4820;50.870;4.702;2022-08-05T02:26:42;8.52;;;5.95;;
9563;SDS011;4820;50.870;4.702;2022-08-05T02:29:15;7.97;;;6.00;;
9563;SDS011;4820;50.870;4.702;2022-08-05T02:31:43;7.30;;;5.57;;
9563;SDS011;4820;50.870;4.702;2022-08-05T02:34:11;7.30;;;5.43;;
9563;SDS011;4820;50.870;4.702;2022-08-05T02:36:47;8.05;;;6.22;;
9563;SDS011;4820;50.870;4.702;2022-08-05T02:39:17;8.73;;;5.88;;
9563;SDS011;4820;50.870;4.702;2022-08-05T02:41:44;5.97;;;5.38;;
9563;SDS011;4820;50.870;4.702;2022-08-05T02:44:12;6.68;;;5.07;;
9563;SDS011;4820;50.870;4.702;2022-08-05T02:46:41;6.55;;;4.63;;
9563;SDS011;4820;50.870;4.702;2022-08-05T02:49:09;9.30;;;5.80;;
9563;SDS011;4820;50.870;4.702;2022-08-05T02:51:37;6.20;;;5.47;;
9563;SDS011;4820;50.870;4.702;2022-08-05T02:54:04;6.25;;;5.25;;
9563;SDS011;4820;50.870;4.702;2022-08-05T02:56:31;5.63;;;4.65;;
9563;SDS011;4820;50.870;4.702;2022-08-05T02:58:58;6.43;;;4.80;;
9563;SDS011;4820;50.870;4.702;2022-08-05T03:01:26;7.22;;;5.25;;
9563;SDS011;4820;50.870;4.702;2022-08-05T03:03:53;6.15;;;5.05;;
9563;SDS011;4820;50.870;4.702;2022-08-05T03:06:22;5.75;;;5.22;;
9563;SDS011;4820;50.870;4.702;2022-08-05T03:08:48;6.35;;;5.43;;
9563;SDS011;4820;50.870;4.702;2022-08-05T03:11:20;8.88;;;5.50;;
9563;SDS011;4820;50.870;4.702;2022-08-05T03:13:50;9.23;;;6.00;;
9563;SDS011;4820;50.870;4.702;2022-08-05T03:16:17;6.78;;;5.80;;
9563;SDS011;4820;50.870;4.702;2022-08-05T03:18:43;7.30;;;5.60;;
9563;SDS011;4820;50.870;4.702;2022-08-05T03:21:10;7.53;;;5.50;;
9563;SDS011;4820;50.870;4.702;2022-08-05T03:23:37;7.25;;;5.63;;
9563;SDS011;4820;50.870;4.702;2022-08-05T03:26:04;8.93;;;6.45;;
9563;SDS011;4820;50.870;4.702;2022-08-05T03:28:31;9.98;;;7.00;;
9563;SDS011;4820;50.870;4.702;2022-08-05T03:30:58;11.60;;;7.47;;
9563;SDS011;4820;50.870;4.702;2022-08-05T03:33:28;9.68;;;7.40;;
9563;SDS011;4820;50.870;4.702;2022-08-05T03:35:55;11.90;;;7.82;;
9563;SDS011;4820;50.870;4.702;2022-08-05T03:38:24;10.05;;;8.18;;
9563;SDS011;4820;50.870;4.702;2022-08-05T03:40:51;10.55;;;7.97;;
9563;SDS011;4820;50.870;4.702;2022-08-05T03:43:17;9.68;;;8.00;;
9563;SDS011;4820;50.870;4.702;2022-08-05T03:45:44;9.25;;;7.90;;
9563;SDS011;4820;50.870;4.702;2022-08-05T03:48:11;9.50;;;7.93;;
9563;SDS011;4820;50.870;4.702;2022-08-05T03:50:46;8.45;;;7.25;;
9563;SDS011;4820;50.870;4.702;2022-08-05T03:54:02;8.82;;;7.75;;
9563;SDS011;4820;50.870;4.702;2022-08-05T03:56:24;9.95;;;7.78;;
9563;SDS011;4820;50.870;4.702;2022-08-05T03:58:56;11.30;;;8.63;;
9563;SDS011;4820;50.870;4.702;2022-08-05T04:01:25;9.15;;;7.75;;
9563;SDS011;4820;50.870;4.702;2022-08-05T04:03:55;13.02;;;9.55;;
9563;SDS011;4820;50.870;4.702;2022-08-05T04:06:23;13.18;;;9.65;;
9563;SDS011;4820;50.870;4.702;2022-08-05T04:08:50;12.77;;;8.60;;
9563;SDS011;4820;50.870;4.702;2022-08-05T04:11:16;11.60;;;9.05;;
9563;SDS011;4820;50.870;4.702;2022-08-05T04:13:42;10.07;;;8.43;;
9563;SDS011;4820;50.870;4.702;2022-08-05T04:16:11;9.50;;;8.23;;
9563;SDS011;4820;50.870;4.702;2022-08-05T04:18:37;10.93;;;7.82;;
9563;SDS011;4820;50.870;4.702;2022-08-05T04:21:04;14.73;;;8.85;;
9563;SDS011;4820;50.870;4.702;2022-08-05T04:23:31;12.52;;;8.68;;
9563;SDS011;4820;50.870;4.702;2022-08-05T04:25:58;13.25;;;8.35;;
9563;SDS011;4820;50.870;4.702;2022-08-05T04:28:24;11.50;;;8.30;;
9563;SDS011;4820;50.870;4.702;2022-08-05T04:30:49;11.18;;;7.82;;
9563;SDS011;4820;50.870;4.702;2022-08-05T04:33:15;9.38;;;8.20;;
9563;SDS011;4820;50.870;4.702;2022-08-05T04:35:41;12.02;;;8.43;;
9563;SDS011;4820;50.870;4.702;2022-08-05T04:38:08;9.02;;;7.45;;
9563;SDS011;4820;50.870;4.702;2022-08-05T04:40:37;9.73;;;8.35;;
9563;SDS011;4820;50.870;4.702;2022-08-05T04:43:04;12.57;;;8.02;;
9563;SDS011;4820;50.870;4.702;2022-08-05T04:45:31;9.80;;;8.13;;
9563;SDS011;4820;50.870;4.702;2022-08-05T04:48:07;13.02;;;6.85;;
9563;SDS011;4820;50.870;4.702;2022-08-05T04:50:39;15.43;;;8.57;;
9563;SDS011;4820;50.870;4.702;2022-08-05T04:53:07;10.48;;;8.70;;
9563;SDS011;4820;50.870;4.702;2022-08-05T04:55:34;8.93;;;7.53;;
9563;SDS011;4820;50.870;4.702;2022-08-05T04:58:01;8.93;;;7.13;;
9563;SDS011;4820;50.870;4.702;2022-08-05T05:00:31;10.43;;;8.52;;
9563;SDS011;4820;50.870;4.702;2022-08-05T05:02:58;11.70;;;7.80;;
9563;SDS011;4820;50.870;4.702;2022-08-05T05:05:24;9.23;;;7.50;;
9563;SDS011;4820;50.870;4.702;2022-08-05T05:07:49;11.63;;;8.48;;
9563;SDS011;4820;50.870;4.702;2022-08-05T05:10:16;10.48;;;8.50;;
9563;SDS011;4820;50.870;4.702;2022-08-05T05:12:42;10.98;;;7.57;;
9563;SDS011;4820;50.870;4.702;2022-08-05T05:15:09;12.18;;;7.85;;
9563;SDS011;4820;50.870;4.702;2022-08-05T05:17:35;10.30;;;7.57;;
9563;SDS011;4820;50.870;4.702;2022-08-05T05:20:02;12.18;;;8.02;;
9563;SDS011;4820;50.870;4.702;2022-08-05T05:22:29;10.55;;;7.80;;
9563;SDS011;4820;50.870;4.702;2022-08-05T05:24:55;11.45;;;7.45;;
9563;SDS011;4820;50.870;4.702;2022-08-05T05:27:21;11.27;;;7.75;;
9563;SDS011;4820;50.870;4.702;2022-08-05T05:29:47;9.50;;;7.72;;
9563;SDS011;4820;50.870;4.702;2022-08-05T05:32:13;10.75;;;8.70;;
9563;SDS011;4820;50.870;4.702;2022-08-05T05:34:38;10.77;;;7.18;;
9563;SDS011;4820;50.870;4.702;2022-08-05T05:37:04;10.65;;;7.10;;
9563;SDS011;4820;50.870;4.702;2022-08-05T05:39:32;8.95;;;7.25;;
9563;SDS011;4820;50.870;4.702;2022-08-05T05:41:58;11.77;;;7.85;;
9563;SDS011;4820;50.870;4.702;2022-08-05T05:44:24;9.05;;;7.43;;
9563;SDS011;4820;50.870;4.702;2022-08-05T05:46:49;12.00;;;8.20;;
9563;SDS011;4820;50.870;4.702;2022-08-05T05:49:15;12.38;;;7.57;;
9563;SDS011;4820;50.870;4.702;2022-08-05T05:51:41;10.48;;;7.72;;
9563;SDS011;4820;50.870;4.702;2022-08-05T05:54:07;8.60;;;7.25;;
9563;SDS011;4820;50.870;4.702;2022-08-05T05:56:33;12.85;;;7.70;;
9563;SDS011;4820;50.870;4.702;2022-08-05T05:58:58;9.73;;;7.00;;
9563;SDS011;4820;50.870;4.702;2022-08-05T06:01:31;10.82;;;8.10;;
9563;SDS011;4820;50.870;4.702;2022-08-05T06:04:02;12.40;;;7.35;;
9563;SDS011;4820;50.870;4.702;2022-08-05T06:06:27;10.43;;;7.10;;
9563;SDS011;4820;50.870;4.702;2022-08-05T06:08:53;9.23;;;6.63;;
9563;SDS011;4820;50.870;4.702;2022-08-05T06:11:19;9.85;;;7.03;;
9563;SDS011;4820;50.870;4.702;2022-08-05T06:13:44;9.75;;;7.13;;
9563;SDS011;4820;50.870;4.702;2022-08-05T06:16:10;12.23;;;7.13;;
9563;SDS011;4820;50.870;4.702;2022-08-05T06:18:36;9.88;;;6.80;;
9563;SDS011;4820;50.870;4.702;2022-08-05T06:21:03;10.55;;;7.80;;
9563;SDS011;4820;50.870;4.702;2022-08-05T06:23:28;9.05;;;5.95;;
9563;SDS011;4820;50.870;4.702;2022-08-05T06:25:55;10.20;;;6.90;;
9563;SDS011;4820;50.870;4.702;2022-08-05T06:28:22;10.73;;;7.70;;
9563;SDS011;4820;50.870;4.702;2022-08-05T06:30:48;8.98;;;6.25;;
9563;SDS011;4820;50.870;4.702;2022-08-05T06:33:13;8.40;;;6.22;;
9563;SDS011;4820;50.870;4.702;2022-08-05T06:35:39;8.98;;;6.30;;
9563;SDS011;4820;50.870;4.702;2022-08-05T06:38:05;12.55;;;6.68;;
9563;SDS011;4820;50.870;4.702;2022-08-05T06:40:30;10.05;;;6.45;;
9563;SDS011;4820;50.870;4.702;2022-08-05T06:42:56;9.18;;;5.90;;
9563;SDS011;4820;50.870;4.702;2022-08-05T06:45:22;10.63;;;6.43;;
9563;SDS011;4820;50.870;4.702;2022-08-05T06:47:47;7.97;;;6.35;;
9563;SDS011;4820;50.870;4.702;2022-08-05T06:50:13;12.27;;;6.78;;
9563;SDS011;4820;50.870;4.702;2022-08-05T06:52:39;9.82;;;6.43;;
9563;SDS011;4820;50.870;4.702;2022-08-05T06:55:04;10.75;;;6.70;;
9563;SDS011;4820;50.870;4.702;2022-08-05T06:57:31;11.20;;;6.70;;
9563;SDS011;4820;50.870;4.702;2022-08-05T06:59:57;10.32;;;6.30;;
9563;SDS011;4820;50.870;4.702;2022-08-05T07:02:22;8.07;;;6.03;;
9563;SDS011;4820;50.870;4.702;2022-08-05T07:04:48;10.35;;;6.78;;
9563;SDS011;4820;50.870;4.702;2022-08-05T07:07:14;8.80;;;6.50;;
9563;SDS011;4820;50.870;4.702;2022-08-05T07:09:39;8.95;;;6.18;;
9563;SDS011;4820;50.870;4.702;2022-08-05T07:12:05;8.98;;;6.30;;
9563;SDS011;4820;50.870;4.702;2022-08-05T07:14:31;11.27;;;6.40;;
9563;SDS011;4820;50.870;4.702;2022-08-05T07:17:15;8.43;;;6.03;;
9563;SDS011;4820;50.870;4.702;2022-08-05T07:19:41;10.15;;;7.18;;
9563;SDS011;4820;50.870;4.702;2022-08-05T07:22:06;9.43;;;6.03;;
9563;SDS011;4820;50.870;4.702;2022-08-05T07:24:32;11.05;;;6.35;;
9563;SDS011;4820;50.870;4.702;2022-08-05T07:26:58;8.70;;;5.95;;
9563;SDS011;4820;50.870;4.702;2022-08-05T07:29:24;11.15;;;6.60;;
9563;SDS011;4820;50.870;4.702;2022-08-05T07:31:50;8.73;;;5.88;;
9563;SDS011;4820;50.870;4.702;2022-08-05T07:34:16;9.50;;;6.10;;
9563;SDS011;4820;50.870;4.702;2022-08-05T07:36:41;9.20;;;6.40;;
9563;SDS011;4820;50.870;4.702;2022-08-05T07:39:07;9.13;;;6.22;;
9563;SDS011;4820;50.870;4.702;2022-08-05T07:41:34;8.90;;;5.82;;
9563;SDS011;4820;50.870;4.702;2022-08-05T07:44:00;11.35;;;6.20;;
9563;SDS011;4820;50.870;4.702;2022-08-05T07:46:29;10.35;;;6.38;;
9563;SDS011;4820;50.870;4.702;2022-08-05T07:48:56;8.77;;;6.00;;
9563;SDS011;4820;50.870;4.702;2022-08-05T07:51:24;9.75;;;5.82;;
9563;SDS011;4820;50.870;4.702;2022-08-05T07:53:49;9.10;;;5.07;;
9563;SDS011;4820;50.870;4.702;2022-08-05T07:56:16;7.43;;;4.88;;
9563;SDS011;4820;50.870;4.702;2022-08-05T07:58:42;10.98;;;5.20;;
9563;SDS011;4820;50.870;4.702;2022-08-05T08:01:08;10.07;;;6.15;;
9563;SDS011;4820;50.870;4.702;2022-08-05T08:03:34;8.48;;;6.10;;
9563;SDS011;4820;50.870;4.702;2022-08-05T08:06:00;8.68;;;5.75;;
9563;SDS011;4820;50.870;4.702;2022-08-05T08:08:25;7.30;;;5.20;;
9563;SDS011;4820;50.870;4.702;2022-08-05T08:10:51;9.98;;;5.55;;
9563;SDS011;4820;50.870;4.702;2022-08-05T08:13:19;8.80;;;5.43;;
9563;SDS011;4820;50.870;4.702;2022-08-05T08:15:48;7.20;;;5.25;;
9563;SDS011;4820;50.870;4.702;2022-08-05T08:18:13;8.25;;;5.68;;
9563;SDS011;4820;50.870;4.702;2022-08-05T08:20:39;8.23;;;5.85;;
9563;SDS011;4820;50.870;4.702;2022-08-05T08:23:05;9.77;;;6.00;;
9563;SDS011;4820;50.870;4.702;2022-08-05T08:25:31;8.50;;;6.40;;
9563;SDS011;4820;50.870;4.702;2022-08-05T08:27:57;8.35;;;6.07;;
9563;SDS011;4820;50.870;4.702;2022-08-05T08:30:24;8.45;;;4.85;;
9563;SDS011;4820;50.870;4.702;2022-08-05T08:32:50;9.38;;;4.97;;
9563;SDS011;4820;50.870;4.702;2022-08-05T08:35:16;8.40;;;5.18;;
9563;SDS011;4820;50.870;4.702;2022-08-05T08:37:41;7.22;;;5.15;;
9563;SDS011;4820;50.870;4.702;2022-08-05T08:40:08;5.82;;;4.35;;
9563;SDS011;4820;50.870;4.702;2022-08-05T08:42:37;7.78;;;5.50;;
9563;SDS011;4820;50.870;4.702;2022-08-05T08:45:05;8.05;;;5.05;;
9563;SDS011;4820;50.870;4.702;2022-08-05T08:47:32;7.75;;;4.82;;
9563;SDS011;4820;50.870;4.702;2022-08-05T08:49:59;10.88;;;5.15;;
9563;SDS011;4820;50.870;4.702;2022-08-05T08:52:28;6.65;;;4.18;;
9563;SDS011;4820;50.870;4.702;2022-08-05T08:54:56;6.05;;;3.85;;
9563;SDS011;4820;50.870;4.702;2022-08-05T08:57:24;6.28;;;4.38;;
9563;SDS011;4820;50.870;4.702;2022-08-05T08:59:50;7.10;;;4.50;;
9563;SDS011;4820;50.870;4.702;2022-08-05T09:02:17;8.05;;;4.50;;
9563;SDS011;4820;50.870;4.702;2022-08-05T09:04:44;8.27;;;4.38;;
9563;SDS011;4820;50.870;4.702;2022-08-05T09:07:12;7.15;;;3.97;;
9563;SDS011;4820;50.870;4.702;2022-08-05T09:09:39;6.15;;;3.90;;
9563;SDS011;4820;50.870;4.702;2022-08-05T09:12:06;7.75;;;4.05;;
9563;SDS011;4820;50.870;4.702;2022-08-05T09:14:33;5.38;;;2.85;;
9563;SDS011;4820;50.870;4.702;2022-08-05T09:17:00;5.82;;;3.30;;
9563;SDS011;4820;50.870;4.702;2022-08-05T09:19:27;4.55;;;2.75;;
9563;SDS011;4820;50.870;4.702;2022-08-05T09:21:53;5.18;;;2.63;;
9563;SDS011;4820;50.870;4.702;2022-08-05T09:24:19;6.10;;;2.30;;
9563;SDS011;4820;50.870;4.702;2022-08-05T09:26:46;4.80;;;2.80;;
9563;SDS011;4820;50.870;4.702;2022-08-05T09:29:14;8.73;;;2.80;;
9563;SDS011;4820;50.870;4.702;2022-08-05T09:31:40;3.65;;;2.33;;
9563;SDS011;4820;50.870;4.702;2022-08-05T09:34:09;5.70;;;2.60;;
9563;SDS011;4820;50.870;4.702;2022-08-05T09:36:43;4.68;;;2.38;;
9563;SDS011;4820;50.870;4.702;2022-08-05T09:39:13;5.95;;;2.22;;
9563;SDS011;4820;50.870;4.702;2022-08-05T09:41:58;2.75;;;1.90;;
9563;SDS011;4820;50.870;4.702;2022-08-05T09:47:20;3.95;;;1.80;;
9563;SDS011;4820;50.870;4.702;2022-08-05T09:52:19;6.18;;;2.80;;
9563;SDS011;4820;50.870;4.702;2022-08-05T09:55:12;4.20;;;2.25;;
9563;SDS011;4820;50.870;4.702;2022-08-05T09:57:43;4.60;;;2.45;;
9563;SDS011;4820;50.870;4.702;2022-08-05T10:00:13;5.38;;;2.60;;
9563;SDS011;4820;50.870;4.702;2022-08-05T10:02:48;4.47;;;2.40;;
9563;SDS011;4820;50.870;4.702;2022-08-05T10:07:56;3.63;;;2.50;;
9563;SDS011;4820;50.870;4.702;2022-08-05T10:10:23;5.57;;;2.88;;
9563;SDS011;4820;50.870;4.702;2022-08-05T10:12:52;3.67;;;2.20;;
9563;SDS011;4820;50.870;4.702;2022-08-05T10:15:25;3.40;;;2.40;;
9563;SDS011;4820;50.870;4.702;2022-08-05T10:25:45;3.47;;;2.05;;
9563;SDS011;4820;50.870;4.702;2022-08-05T10:28:11;3.45;;;1.73;;
9563;SDS011;4820;50.870;4.702;2022-08-05T10:30:37;2.55;;;2.00;;
9563;SDS011;4820;50.870;4.702;2022-08-05T10:33:04;2.72;;;1.90;;
9563;SDS011;4820;50.870;4.702;2022-08-05T10:35:30;4.13;;;1.95;;
9563;SDS011;4820;50.870;4.702;2022-08-05T10:37:57;2.78;;;1.60;;
9563;SDS011;4820;50.870;4.702;2022-08-05T10:43:08;4.20;;;1.77;;
9563;SDS011;4820;50.870;4.702;2022-08-05T10:45:55;3.53;;;1.90;;
9563;SDS011;4820;50.870;4.702;2022-08-05T10:51:19;2.65;;;1.60;;
9563;SDS011;4820;50.870;4.702;2022-08-05T10:56:26;2.80;;;1.70;;
9563;SDS011;4820;50.870;4.702;2022-08-05T11:01:41;5.10;;;2.10;;
9563;SDS011;4820;50.870;4.702;2022-08-05T11:04:12;2.70;;;1.60;;
9563;SDS011;4820;50.870;4.702;2022-08-05T11:09:24;2.63;;;1.70;;
9563;SDS011;4820;50.870;4.702;2022-08-05T11:17:35;2.05;;;1.80;;
9563;SDS011;4820;50.870;4.702;2022-08-05T11:20:04;3.78;;;1.90;;
9563;SDS011;4820;50.870;4.702;2022-08-05T11:22:46;3.30;;;1.98;;
9563;SDS011;4820;50.870;4.702;2022-08-05T11:33:34;3.10;;;2.13;;
9563;SDS011;4820;50.870;4.702;2022-08-05T11:36:03;5.93;;;2.50;;
9563;SDS011;4820;50.870;4.702;2022-08-05T11:41:13;4.07;;;1.92;;
9563;SDS011;4820;50.870;4.702;2022-08-05T11:43:51;2.83;;;2.00;;
9563;SDS011;4820;50.870;4.702;2022-08-05T11:48:58;2.97;;;1.70;;
9563;SDS011;4820;50.870;4.702;2022-08-05T11:51:25;2.20;;;1.60;;
9563;SDS011;4820;50.870;4.702;2022-08-05T11:53:52;4.72;;;1.90;;
9563;SDS011;4820;50.870;4.702;2022-08-05T11:56:21;4.15;;;1.92;;
9563;SDS011;4820;50.870;4.702;2022-08-05T11:58:49;3.33;;;1.70;;
9563;SDS011;4820;50.870;4.702;2022-08-05T12:01:16;3.78;;;1.77;;
9563;SDS011;4820;50.870;4.702;2022-08-05T12:06:14;3.13;;;1.52;;
9563;SDS011;4820;50.870;4.702;2022-08-05T12:11:10;5.00;;;1.80;;
9563;SDS011;4820;50.870;4.702;2022-08-05T12:13:41;3.28;;;1.50;;
9563;SDS011;4820;50.870;4.702;2022-08-05T12:16:18;3.47;;;1.70;;
9563;SDS011;4820;50.870;4.702;2022-08-05T12:18:44;2.85;;;1.80;;
9563;SDS011;4820;50.870;4.702;2022-08-05T12:21:15;6.03;;;1.77;;
9563;SDS011;4820;50.870;4.702;2022-08-05T12:23:58;3.13;;;1.60;;
9563;SDS011;4820;50.870;4.702;2022-08-05T12:26:33;5.13;;;1.60;;
9563;SDS011;4820;50.870;4.702;2022-08-05T12:29:04;4.13;;;1.65;;
9563;SDS011;4820;50.870;4.702;2022-08-05T12:31:32;3.15;;;1.50;;
9563;SDS011;4820;50.870;4.702;2022-08-05T12:34:04;4.03;;;1.60;;
9563;SDS011;4820;50.870;4.702;2022-08-05T12:36:32;4.18;;;1.70;;
9563;SDS011;4820;50.870;4.702;2022-08-05T12:38:59;4.20;;;1.50;;
9563;SDS011;4820;50.870;4.702;2022-08-05T12:41:30;4.70;;;1.80;;
9563;SDS011;4820;50.870;4.702;2022-08-05T12:44:02;2.97;;;1.55;;
9563;SDS011;4820;50.870;4.702;2022-08-05T12:46:30;1.67;;;1.20;;
9563;SDS011;4820;50.870;4.702;2022-08-05T12:49:13;4.63;;;1.50;;
9563;SDS011;4820;50.870;4.702;2022-08-05T12:54:23;2.53;;;1.48;;
9563;SDS011;4820;50.870;4.702;2022-08-05T12:59:24;2.85;;;1.42;;
9563;SDS011;4820;50.870;4.702;2022-08-05T13:01:59;4.80;;;1.63;;
9563;SDS011;4820;50.870;4.702;2022-08-05T13:04:28;2.78;;;1.40;;
9563;SDS011;4820;50.870;4.702;2022-08-05T13:06:56;3.97;;;1.50;;
9563;SDS011;4820;50.870;4.702;2022-08-05T13:09:24;4.47;;;1.45;;
9563;SDS011;4820;50.870;4.702;2022-08-05T13:12:02;2.55;;;1.50;;
9563;SDS011;4820;50.870;4.702;2022-08-05T13:14:34;3.50;;;1.60;;
9563;SDS011;4820;50.870;4.702;2022-08-05T13:17:15;3.83;;;1.40;;
9563;SDS011;4820;50.870;4.702;2022-08-05T13:19:58;4.25;;;1.55;;
9563;SDS011;4820;50.870;4.702;2022-08-05T13:22:24;5.22;;;1.80;;
9563;SDS011;4820;50.870;4.702;2022-08-05T13:24:52;2.60;;;1.30;;
9563;SDS011;4820;50.870;4.702;2022-08-05T13:27:27;3.13;;;1.50;;
9563;SDS011;4820;50.870;4.702;2022-08-05T13:29:55;2.80;;;1.58;;
9563;SDS011;4820;50.870;4.702;2022-08-05T13:32:22;3.35;;;1.10;;
9563;SDS011;4820;50.870;4.702;2022-08-05T13:34:48;4.53;;;1.33;;
9563;SDS011;4820;50.870;4.702;2022-08-05T13:37:16;2.92;;;1.50;;
9563;SDS011;4820;50.870;4.702;2022-08-05T13:39:46;3.00;;;1.60;;
9563;SDS011;4820;50.870;4.702;2022-08-05T13:42:17;4.97;;;4.45;;
9563;SDS011;4820;50.870;4.702;2022-08-05T13:44:45;2.05;;;1.17;;
9563;SDS011;4820;50.870;4.702;2022-08-05T13:47:12;4.07;;;1.17;;
9563;SDS011;4820;50.870;4.702;2022-08-05T13:49:38;2.75;;;1.13;;
9563;SDS011;4820;50.870;4.702;2022-08-05T13:52:14;2.33;;;1.10;;
9563;SDS011;4820;50.870;4.702;2022-08-05T13:54:42;2.35;;;1.20;;
9563;SDS011;4820;50.870;4.702;2022-08-05T13:57:09;1.98;;;1.10;;
9563;SDS011;4820;50.870;4.702;2022-08-05T13:59:36;2.42;;;1.30;;
9563;SDS011;4820;50.870;4.702;2022-08-05T14:02:03;2.55;;;1.30;;
9563;SDS011;4820;50.870;4.702;2022-08-05T14:04:31;2.90;;;1.25;;
9563;SDS011;4820;50.870;4.702;2022-08-05T14:07:22;1.90;;;1.10;;
9563;SDS011;4820;50.870;4.702;2022-08-05T14:09:52;2.13;;;1.08;;
9563;SDS011;4820;50.870;4.702;2022-08-05T14:12:19;3.08;;;1.25;;
9563;SDS011;4820;50.870;4.702;2022-08-05T14:14:46;3.78;;;1.00;;
9563;SDS011;4820;50.870;4.702;2022-08-05T14:17:12;1.77;;;0.98;;
9563;SDS011;4820;50.870;4.702;2022-08-05T14:19:39;2.38;;;1.00;;
9563;SDS011;4820;50.870;4.702;2022-08-05T14:22:05;2.53;;;1.30;;
9563;SDS011;4820;50.870;4.702;2022-08-05T14:24:31;3.03;;;1.30;;
9563;SDS011;4820;50.870;4.702;2022-08-05T14:26:57;2.45;;;1.08;;
9563;SDS011;4820;50.870;4.702;2022-08-05T14:29:23;2.75;;;1.15;;
9563;SDS011;4820;50.870;4.702;2022-08-05T14:31:49;3.70;;;1.38;;
9563;SDS011;4820;50.870;4.702;2022-08-05T14:34:15;1.92;;;1.20;;
9563;SDS011;4820;50.870;4.702;2022-08-05T14:36:44;3.35;;;1.17;;
9563;SDS011;4820;50.870;4.702;2022-08-05T14:39:10;3.30;;;1.10;;
9563;SDS011;4820;50.870;4.702;2022-08-05T14:41:35;1.63;;;1.00;;
9563;SDS011;4820;50.870;4.702;2022-08-05T14:44:03;2.40;;;0.95;;
9563;SDS011;4820;50.870;4.702;2022-08-05T14:48:58;2.25;;;1.00;;
9563;SDS011;4820;50.870;4.702;2022-08-05T14:51:26;2.55;;;1.08;;
9563;SDS011;4820;50.870;4.702;2022-08-05T14:53:52;4.97;;;1.10;;
9563;SDS011;4820;50.870;4.702;2022-08-05T14:56:18;2.40;;;1.00;;
9563;SDS011;4820;50.870;4.702;2022-08-05T14:58:45;1.80;;;1.05;;
9563;SDS011;4820;50.870;4.702;2022-08-05T15:01:10;3.05;;;1.20;;
9563;SDS011;4820;50.870;4.702;2022-08-05T15:03:36;2.75;;;1.30;;
9563;SDS011;4820;50.870;4.702;2022-08-05T15:06:03;2.88;;;1.10;;
9563;SDS011;4820;50.870;4.702;2022-08-05T15:08:30;2.55;;;1.20;;
9563;SDS011;4820;50.870;4.702;2022-08-05T15:10:55;2.95;;;1.00;;
9563;SDS011;4820;50.870;4.702;2022-08-05T15:13:21;4.30;;;1.30;;
9563;SDS011;4820;50.870;4.702;2022-08-05T15:15:47;3.53;;;1.27;;
9563;SDS011;4820;50.870;4.702;2022-08-05T15:18:13;2.15;;;1.00;;
9563;SDS011;4820;50.870;4.702;2022-08-05T15:20:39;2.15;;;1.10;;
9563;SDS011;4820;50.870;4.702;2022-08-05T15:23:09;2.53;;;1.20;;
9563;SDS011;4820;50.870;4.702;2022-08-05T15:25:35;2.17;;;1.05;;
9563;SDS011;4820;50.870;4.702;2022-08-05T15:28:05;1.27;;;0.90;;
9563;SDS011;4820;50.870;4.702;2022-08-05T15:30:31;1.63;;;1.10;;
9563;SDS011;4820;50.870;4.702;2022-08-05T15:32:58;1.50;;;1.10;;
9563;SDS011;4820;50.870;4.702;2022-08-05T15:35:26;3.17;;;1.20;;
9563;SDS011;4820;50.870;4.702;2022-08-05T15:37:52;3.67;;;1.00;;
9563;SDS011;4820;50.870;4.702;2022-08-05T15:40:18;2.20;;;1.00;;
9563;SDS011;4820;50.870;4.702;2022-08-05T15:42:44;2.55;;;1.10;;
9563;SDS011;4820;50.870;4.702;2022-08-05T15:45:13;2.38;;;1.30;;
9563;SDS011;4820;50.870;4.702;2022-08-05T15:47:40;3.55;;;1.17;;
9563;SDS011;4820;50.870;4.702;2022-08-05T15:50:07;2.67;;;1.08;;
9563;SDS011;4820;50.870;4.702;2022-08-05T15:52:34;3.03;;;1.30;;
9563;SDS011;4820;50.870;4.702;2022-08-05T15:55:06;3.65;;;1.35;;
9563;SDS011;4820;50.870;4.702;2022-08-05T15:57:34;1.67;;;1.40;;
9563;SDS011;4820;50.870;4.702;2022-08-05T16:00:00;4.35;;;1.60;;
9563;SDS011;4820;50.870;4.702;2022-08-05T16:02:28;3.15;;;1.33;;
9563;SDS011;4820;50.870;4.702;2022-08-05T16:04:53;2.42;;;1.20;;
9563;SDS011;4820;50.870;4.702;2022-08-05T16:07:20;4.07;;;1.20;;
9563;SDS011;4820;50.870;4.702;2022-08-05T16:09:46;1.42;;;1.20;;
9563;SDS011;4820;50.870;4.702;2022-08-05T16:12:13;2.88;;;1.33;;
9563;SDS011;4820;50.870;4.702;2022-08-05T16:14:40;1.20;;;1.02;;
9563;SDS011;4820;50.870;4.702;2022-08-05T16:17:05;1.20;;;1.10;;
9563;SDS011;4820;50.870;4.702;2022-08-05T16:19:31;2.30;;;1.20;;
9563;SDS011;4820;50.870;4.702;2022-08-05T16:21:57;1.65;;;1.02;;
9563;SDS011;4820;50.870;4.702;2022-08-05T16:24:23;1.63;;;1.10;;
9563;SDS011;4820;50.870;4.702;2022-08-05T16:29:19;2.20;;;1.30;;
9563;SDS011;4820;50.870;4.702;2022-08-05T16:31:45;3.08;;;1.02;;
9563;SDS011;4820;50.870;4.702;2022-08-05T16:34:12;3.40;;;1.30;;
9563;SDS011;4820;50.870;4.702;2022-08-05T16:36:38;1.50;;;1.15;;